createdAt,value
2023-04-18T00:00:06.236Z,6.68
2023-04-18T00:02:55.273Z,7.97
2023-04-18T00:05:38.714Z,7.78
2023-04-18T00:08:21.507Z,8.00
2023-04-18T00:11:05.750Z,8.15
2023-04-18T00:13:48.556Z,7.43
2023-04-18T00:16:33.123Z,6.60
2023-04-18T00:19:15.960Z,6.28
2023-04-18T00:21:59.909Z,7.03
2023-04-18T00:24:42.687Z,8.60
2023-04-18T00:27:27.218Z,10.10
2023-04-18T00:30:10.851Z,8.15
2023-04-18T00:32:53.644Z,8.88
2023-04-18T00:35:38.178Z,9.05
2023-04-18T00:38:20.924Z,10.10
2023-04-18T00:41:04.151Z,8.68
2023-04-18T00:43:48.274Z,9.13
2023-04-18T00:46:31.132Z,8.32
2023-04-18T00:49:14.121Z,8.13
2023-04-18T00:51:57.598Z,8.38
2023-04-18T00:54:41.104Z,8.20
2023-04-18T00:57:24.565Z,7.47
2023-04-18T01:00:10.131Z,7.47
2023-04-18T01:02:55.885Z,7.07
2023-04-18T01:05:39.496Z,6.35
2023-04-18T01:08:23.306Z,5.93
2023-04-18T01:11:06.250Z,6.10
2023-04-18T01:14:00.454Z,7.05
2023-04-18T01:16:44.995Z,7.35
2023-04-18T01:19:27.906Z,7.35
2023-04-18T01:22:14.292Z,6.70
2023-04-18T01:24:58.632Z,7.13
2023-04-18T01:27:41.439Z,6.28
2023-04-18T01:30:24.292Z,5.82
2023-04-18T01:33:07.604Z,5.30
2023-04-18T01:35:50.463Z,5.45
2023-04-18T01:38:34.228Z,5.32
2023-04-18T01:41:18.372Z,5.22
2023-04-18T01:44:01.130Z,5.00
2023-04-18T01:46:43.982Z,4.35
2023-04-18T01:49:26.770Z,4.43
2023-04-18T01:52:09.603Z,4.72
2023-04-18T01:54:52.398Z,5.40
2023-04-18T01:57:37.652Z,4.47
2023-04-18T02:00:21.659Z,4.28
2023-04-18T02:03:05.057Z,4.78
2023-04-18T02:05:48.131Z,3.75
2023-04-18T02:08:33.085Z,3.55
2023-04-18T02:11:15.922Z,4.38
2023-04-18T02:14:00.238Z,3.30
2023-04-18T02:16:43.091Z,3.55
2023-04-18T02:19:26.335Z,3.53
2023-04-18T02:22:09.118Z,3.88
2023-04-18T02:24:51.928Z,4.57
2023-04-18T02:27:34.960Z,3.78
2023-04-18T02:30:19.155Z,3.60
2023-04-18T02:33:02.020Z,3.50
2023-04-18T02:35:44.794Z,4.07
2023-04-18T02:38:27.592Z,4.07
2023-04-18T02:41:14.996Z,4.10
2023-04-18T02:43:58.172Z,3.30
2023-04-18T02:46:42.717Z,3.17
2023-04-18T02:49:28.409Z,3.45
2023-04-18T02:52:11.200Z,4.45
2023-04-18T02:54:53.987Z,4.82
2023-04-18T02:57:41.590Z,5.57
2023-04-18T03:00:26.973Z,5.72
2023-04-18T03:03:18.923Z,4.88
2023-04-18T03:06:26.959Z,4.70
2023-04-18T03:09:10.038Z,5.07
2023-04-18T03:11:58.500Z,4.53
2023-04-18T03:14:45.384Z,4.10
2023-04-18T03:17:30.144Z,4.18
2023-04-18T03:20:14.881Z,5.00
2023-04-18T03:22:57.761Z,5.13
2023-04-18T03:25:42.870Z,4.22
2023-04-18T03:28:26.030Z,5.22
2023-04-18T03:31:09.633Z,4.80
2023-04-18T03:33:55.344Z,4.57
2023-04-18T03:36:39.536Z,3.40
2023-04-18T03:39:22.447Z,3.17
2023-04-18T03:42:05.254Z,3.55
2023-04-18T03:44:49.550Z,3.17
2023-04-18T03:47:33.495Z,2.85
2023-04-18T03:50:16.569Z,3.00
2023-04-18T03:53:02.893Z,3.08
2023-04-18T03:55:49.164Z,2.92
2023-04-18T03:58:36.443Z,3.40
2023-04-18T04:01:19.258Z,3.03
2023-04-18T04:04:03.049Z,2.50
2023-04-18T04:06:46.295Z,3.07
2023-04-18T04:09:30.595Z,3.30
2023-04-18T04:12:13.482Z,2.83
2023-04-18T04:14:56.266Z,2.75
2023-04-18T04:17:39.140Z,3.40
2023-04-18T04:20:24.699Z,2.80
2023-04-18T04:23:14.503Z,2.80
2023-04-18T04:26:04.153Z,2.85
2023-04-18T04:28:58.539Z,2.85
2023-04-18T04:31:43.819Z,3.50
2023-04-18T04:34:26.795Z,3.47
2023-04-18T04:37:10.215Z,4.20
2023-04-18T04:40:04.734Z,3.47
2023-04-18T04:42:58.743Z,3.70
2023-04-18T04:45:49.611Z,3.40
2023-04-18T04:48:32.430Z,3.50
2023-04-18T04:51:15.221Z,3.33
2023-04-18T04:53:58.070Z,3.60
2023-04-18T04:56:40.918Z,3.85
2023-04-18T04:59:25.322Z,3.70
2023-04-18T05:02:08.464Z,3.50
2023-04-18T05:04:52.205Z,2.90
2023-04-18T05:07:35.166Z,2.65
2023-04-18T05:10:18.058Z,3.38
2023-04-18T05:13:00.857Z,3.72
2023-04-18T05:15:45.579Z,3.40
2023-04-18T05:18:28.476Z,4.05
2023-04-18T05:21:11.432Z,4.30
2023-04-18T05:23:54.375Z,4.57
2023-04-18T05:26:37.356Z,3.80
2023-04-18T05:29:20.398Z,4.00
2023-04-18T05:32:04.741Z,4.45
2023-04-18T05:34:47.908Z,4.25
2023-04-18T05:37:30.784Z,5.15
2023-04-18T05:40:14.667Z,4.13
2023-04-18T05:42:57.556Z,3.77
2023-04-18T05:45:40.712Z,3.10
2023-04-18T05:48:25.462Z,3.40
2023-04-18T05:51:10.026Z,3.25
2023-04-18T05:53:54.433Z,3.10
2023-04-18T05:56:37.473Z,2.70
2023-04-18T05:59:20.678Z,3.58
2023-04-18T06:02:03.474Z,3.47
2023-04-18T06:04:48.746Z,3.38
2023-04-18T06:07:32.389Z,5.07
2023-04-18T06:10:15.808Z,3.33
2023-04-18T06:12:58.577Z,3.83
2023-04-18T06:15:41.846Z,3.25
2023-04-18T06:18:24.725Z,3.25
2023-04-18T06:21:08.973Z,3.45
2023-04-18T06:23:51.732Z,3.97
2023-04-18T06:26:34.739Z,4.50
2023-04-18T06:29:18.225Z,3.63
2023-04-18T06:32:01.061Z,3.42
2023-04-18T06:34:44.827Z,3.38
2023-04-18T06:37:29.070Z,3.20
2023-04-18T06:40:12.978Z,3.30
2023-04-18T06:42:55.829Z,3.40
2023-04-18T06:45:38.930Z,3.30
2023-04-18T06:48:21.748Z,4.00
2023-04-18T06:51:04.748Z,4.20
2023-04-18T06:53:52.498Z,3.53
2023-04-18T06:56:36.525Z,3.50
2023-04-18T06:59:21.416Z,4.05
2023-04-18T07:04:47.528Z,2.50
2023-04-18T07:07:30.367Z,3.65
2023-04-18T07:10:14.560Z,3.28
2023-04-18T07:12:57.332Z,3.65
2023-04-18T07:15:40.136Z,2.80
2023-04-18T07:18:34.092Z,3.08
2023-04-18T07:21:17.455Z,2.78
2023-04-18T07:24:00.228Z,3.60
2023-04-18T07:26:44.574Z,2.83
2023-04-18T07:29:27.345Z,2.25
2023-04-18T07:32:10.666Z,2.42
2023-04-18T07:34:53.784Z,2.80
2023-04-18T07:37:36.952Z,2.70
2023-04-18T07:40:19.931Z,1.90
2023-04-18T07:43:04.116Z,1.63
2023-04-18T07:45:46.913Z,2.05
2023-04-18T07:48:29.687Z,1.70
2023-04-18T07:51:12.978Z,1.65
2023-04-18T07:53:55.709Z,1.65
2023-04-18T07:56:38.560Z,1.30
2023-04-18T07:59:22.669Z,1.67
2023-04-18T08:02:05.554Z,1.38
2023-04-18T08:04:50.079Z,1.70
2023-04-18T08:10:15.669Z,1.40
2023-04-18T08:12:58.457Z,1.55
2023-04-18T08:15:44.212Z,1.25
2023-04-18T08:18:27.083Z,1.30
2023-04-18T08:21:09.901Z,1.20
2023-04-18T08:23:52.662Z,1.00
2023-04-18T08:26:35.559Z,0.95
2023-04-18T08:29:18.363Z,1.30
2023-04-18T08:32:02.821Z,1.10
2023-04-18T08:34:46.848Z,0.60
2023-04-18T08:37:30.231Z,0.90
2023-04-18T08:40:13.250Z,1.10
2023-04-18T08:42:58.436Z,1.17
2023-04-18T08:45:41.535Z,1.20
2023-04-18T08:48:26.371Z,1.20
2023-04-18T08:51:09.273Z,1.00
2023-04-18T08:53:52.093Z,0.90
2023-04-18T08:56:37.453Z,1.63
2023-04-18T08:59:20.518Z,1.35
2023-04-18T09:02:05.010Z,1.40
2023-04-18T09:04:52.482Z,1.70
2023-04-18T09:07:35.318Z,1.60
2023-04-18T09:10:27.526Z,1.38
2023-04-18T09:13:10.379Z,1.98
2023-04-18T09:15:56.119Z,2.05
2023-04-18T09:18:38.905Z,2.10
2023-04-18T09:21:23.660Z,1.70
2023-04-18T09:24:20.752Z,2.10
2023-04-18T09:27:04.332Z,1.90
2023-04-18T09:29:49.397Z,1.90
2023-04-18T09:32:33.274Z,1.90
2023-04-18T09:35:25.896Z,2.20
2023-04-18T09:38:10.243Z,2.15
2023-04-18T09:41:08.924Z,1.52
2023-04-18T09:44:09.297Z,1.73
2023-04-18T09:46:53.802Z,1.90
2023-04-18T09:49:36.614Z,1.65
2023-04-18T09:52:21.101Z,1.98
2023-04-18T09:55:06.938Z,1.58
2023-04-18T09:57:50.118Z,2.13
2023-04-18T10:00:36.445Z,2.00
2023-04-18T10:03:20.849Z,1.75
2023-04-18T10:06:04.605Z,1.65
2023-04-18T10:08:49.034Z,2.05
2023-04-18T10:11:33.295Z,2.63
2023-04-18T10:14:17.476Z,2.65
2023-04-18T10:17:01.111Z,2.53
2023-04-18T10:19:46.013Z,2.15
2023-04-18T10:22:28.926Z,2.08
2023-04-18T10:25:11.714Z,2.22
2023-04-18T10:28:02.969Z,2.30
2023-04-18T10:30:57.766Z,1.88
2023-04-18T10:33:42.781Z,1.88
2023-04-18T10:36:26.858Z,1.60
2023-04-18T10:39:22.461Z,2.00
2023-04-18T10:42:05.643Z,1.73
2023-04-18T10:45:19.611Z,2.03
2023-04-18T10:48:26.061Z,1.33
2023-04-18T10:51:20.911Z,1.60
2023-04-18T10:54:04.663Z,1.98
2023-04-18T10:56:54.241Z,1.20
2023-04-18T10:59:39.881Z,1.08
2023-04-18T11:02:30.047Z,1.00
2023-04-18T11:05:13.118Z,0.90
2023-04-18T11:07:56.034Z,0.60
2023-04-18T11:10:38.950Z,0.70
2023-04-18T11:13:21.750Z,0.80
2023-04-18T11:16:05.321Z,0.73
2023-04-18T11:18:49.481Z,0.90
2023-04-18T11:21:32.213Z,0.85
2023-04-18T11:24:23.119Z,0.57
2023-04-18T11:27:06.640Z,0.80
2023-04-18T11:29:53.932Z,0.50
2023-04-18T11:32:37.005Z,0.65
2023-04-18T11:35:21.276Z,0.50
2023-04-18T11:38:04.624Z,0.55
2023-04-18T11:40:51.250Z,0.60
2023-04-18T11:43:34.694Z,0.50
2023-04-18T11:46:17.547Z,0.63
2023-04-18T11:49:00.388Z,0.60
2023-04-18T11:51:46.289Z,0.50
2023-04-18T11:54:42.604Z,0.55
2023-04-18T11:57:26.795Z,0.45
2023-04-18T12:00:12.231Z,0.43
2023-04-18T12:02:55.184Z,0.40
2023-04-18T12:05:39.255Z,0.40
2023-04-18T12:08:23.597Z,0.38
2023-04-18T12:11:06.348Z,0.40
2023-04-18T12:13:49.333Z,0.50
2023-04-18T12:16:33.440Z,0.40
2023-04-18T12:19:17.065Z,0.32
2023-04-18T12:22:01.623Z,0.50
2023-04-18T12:24:46.232Z,0.47
2023-04-18T12:27:48.084Z,0.50
2023-04-18T12:30:33.393Z,0.60
2023-04-18T12:33:17.432Z,0.60
2023-04-18T12:36:00.835Z,0.50
2023-04-18T12:38:43.756Z,0.50
2023-04-18T12:41:27.881Z,0.55
2023-04-18T12:44:10.637Z,0.70
2023-04-18T12:46:53.439Z,0.50
2023-04-18T12:49:36.350Z,0.60
2023-04-18T12:52:19.089Z,0.70
2023-04-18T12:55:01.997Z,0.60
2023-04-18T12:57:46.168Z,0.63
2023-04-18T13:00:30.420Z,0.60
2023-04-18T13:03:13.745Z,0.80
2023-04-18T13:05:56.659Z,0.70
2023-04-18T13:08:39.453Z,0.70
2023-04-18T13:11:22.530Z,0.90
2023-04-18T13:14:07.094Z,1.10
2023-04-18T13:16:49.898Z,1.30
2023-04-18T13:19:32.824Z,1.02
2023-04-18T13:22:15.775Z,1.40
2023-04-18T13:24:58.571Z,1.63
2023-04-18T13:27:42.470Z,1.90
2023-04-18T13:30:26.862Z,1.90
2023-04-18T13:33:10.617Z,1.85
2023-04-18T13:35:53.766Z,1.80
2023-04-18T13:38:36.553Z,2.63
2023-04-18T13:41:19.322Z,2.08
2023-04-18T13:44:02.091Z,2.00
2023-04-18T13:46:46.342Z,2.40
2023-04-18T13:49:29.355Z,2.40
2023-04-18T13:52:12.183Z,3.10
2023-04-18T13:54:56.409Z,2.50
2023-04-18T13:57:39.209Z,2.95
2023-04-18T14:00:22.192Z,2.80
2023-04-18T14:03:06.894Z,2.40
2023-04-18T14:05:49.753Z,2.35
2023-04-18T14:08:32.569Z,2.58
2023-04-18T14:11:15.320Z,2.40
2023-04-18T14:13:58.095Z,1.65
2023-04-18T14:16:40.858Z,1.58
2023-04-18T14:19:25.129Z,1.80
2023-04-18T14:22:08.099Z,1.40
2023-04-18T14:24:52.353Z,1.35
2023-04-18T14:27:35.154Z,1.17
2023-04-18T14:30:17.967Z,0.90
2023-04-18T14:33:00.770Z,1.10
2023-04-18T14:35:45.050Z,1.00
2023-04-18T14:38:27.879Z,0.73
2023-04-18T14:41:11.093Z,0.65
2023-04-18T14:43:53.930Z,0.70
2023-04-18T14:49:19.573Z,0.60
2023-04-18T14:52:03.706Z,0.50
2023-04-18T14:54:46.482Z,0.60
2023-04-18T14:57:29.321Z,0.50
2023-04-18T15:00:14.651Z,0.30
2023-04-18T15:02:57.534Z,0.40
2023-04-18T15:05:42.939Z,0.50
2023-04-18T15:08:27.362Z,0.40
2023-04-18T15:11:10.123Z,0.50
2023-04-18T15:13:52.897Z,0.47
2023-04-18T15:16:38.028Z,0.30
2023-04-18T15:19:20.887Z,0.30
2023-04-18T15:22:03.811Z,0.30
2023-04-18T15:24:48.384Z,0.30
2023-04-18T15:27:31.159Z,0.30
2023-04-18T15:30:14.505Z,0.40
2023-04-18T15:32:57.322Z,0.40
2023-04-18T15:35:40.183Z,0.40
2023-04-18T15:38:23.262Z,0.38
2023-04-18T15:41:07.448Z,0.30
2023-04-18T15:43:50.306Z,0.30
2023-04-18T15:46:33.200Z,0.60
2023-04-18T15:49:16.198Z,0.60
2023-04-18T15:51:58.997Z,1.40
2023-04-18T15:54:42.791Z,1.08
2023-04-18T15:57:29.337Z,0.95
2023-04-18T16:00:15.894Z,1.00
2023-04-18T16:02:58.864Z,1.10
2023-04-18T16:05:41.820Z,1.00
2023-04-18T16:08:24.633Z,0.88
2023-04-18T16:11:08.359Z,1.02
2023-04-18T16:13:52.725Z,0.80
2023-04-18T16:16:35.523Z,0.90
2023-04-18T16:19:18.432Z,1.20
2023-04-18T16:22:01.257Z,1.17
2023-04-18T16:24:44.027Z,1.30
2023-04-18T16:27:26.774Z,1.10
2023-04-18T16:30:11.924Z,1.08
2023-04-18T16:32:55.428Z,1.30
2023-04-18T16:35:38.684Z,2.10
2023-04-18T16:38:23.522Z,1.60
2023-04-18T16:41:06.518Z,1.73
2023-04-18T16:43:49.281Z,1.70
2023-04-18T16:46:33.479Z,1.60
2023-04-18T16:49:16.307Z,1.50
2023-04-18T16:51:59.068Z,1.20
2023-04-18T16:54:42.082Z,1.20
2023-04-18T16:57:24.851Z,1.20
2023-04-18T17:00:10.224Z,1.20
2023-04-18T17:02:55.789Z,1.48
2023-04-18T17:05:39.378Z,1.23
2023-04-18T17:08:22.153Z,1.33
2023-04-18T17:11:05.006Z,2.40
2023-04-18T17:13:48.097Z,1.50
2023-04-18T17:16:31.426Z,1.50
2023-04-18T17:19:16.379Z,1.50
2023-04-18T17:21:59.281Z,1.30
2023-04-18T17:24:42.112Z,1.23
2023-04-18T17:27:25.093Z,1.20
2023-04-18T17:30:08.914Z,1.20
2023-04-18T17:32:51.705Z,1.30
2023-04-18T17:35:37.116Z,0.95
2023-04-18T17:38:19.878Z,0.90
2023-04-18T17:41:04.617Z,1.33
2023-04-18T17:43:47.803Z,1.40
2023-04-18T17:46:30.762Z,1.00
2023-04-18T17:49:13.814Z,1.00
2023-04-18T17:51:58.031Z,0.90
2023-04-18T17:54:40.801Z,1.33
2023-04-18T17:57:26.028Z,1.00
2023-04-18T18:00:10.463Z,1.08
2023-04-18T18:02:55.230Z,1.00
2023-04-18T18:05:38.110Z,1.00
2023-04-18T18:08:22.546Z,1.45
2023-04-18T18:11:06.144Z,1.30
2023-04-18T18:13:51.666Z,1.10
2023-04-18T18:16:34.717Z,1.00
2023-04-18T18:19:17.674Z,1.10
2023-04-18T18:22:00.431Z,1.30
2023-04-18T18:24:44.568Z,1.27
2023-04-18T18:27:27.325Z,1.13
2023-04-18T18:30:10.433Z,1.50
2023-04-18T18:32:53.582Z,1.45
2023-04-18T18:35:36.565Z,1.70
2023-04-18T18:38:19.331Z,1.70
2023-04-18T18:41:04.633Z,1.08
2023-04-18T18:43:47.398Z,1.70
2023-04-18T18:46:30.309Z,2.10
2023-04-18T18:49:13.373Z,1.80
2023-04-18T18:51:56.933Z,1.70
2023-04-18T18:54:39.734Z,1.60
2023-04-18T18:57:23.931Z,3.55
2023-04-18T19:00:09.679Z,3.00
2023-04-18T19:02:53.000Z,3.55
2023-04-18T19:05:35.901Z,2.03
2023-04-18T19:08:18.666Z,1.70
2023-04-18T19:11:01.514Z,1.15
2023-04-18T19:13:45.640Z,1.10
2023-04-18T19:16:29.705Z,1.15
2023-04-18T19:19:12.617Z,1.40
2023-04-18T19:21:55.559Z,1.75
2023-04-18T19:24:38.466Z,1.80
2023-04-18T19:27:21.249Z,2.25
2023-04-18T19:30:06.193Z,2.30
2023-04-18T19:32:49.037Z,1.73
2023-04-18T19:35:31.854Z,1.88
2023-04-18T19:38:14.612Z,1.90
2023-04-18T19:40:57.511Z,2.90
2023-04-18T19:43:42.425Z,2.17
2023-04-18T19:46:26.843Z,1.98
2023-04-18T19:49:09.706Z,1.92
2023-04-18T19:51:52.814Z,1.50
2023-04-18T19:54:35.752Z,1.58
2023-04-18T19:57:18.521Z,2.60
2023-04-18T20:00:01.416Z,2.50
2023-04-18T20:02:45.613Z,4.10
2023-04-18T20:05:28.542Z,4.03
2023-04-18T20:08:11.406Z,4.38
2023-04-18T20:10:54.166Z,3.42
2023-04-18T20:13:37.637Z,4.82
2023-04-18T20:16:21.060Z,6.95
2023-04-18T20:19:05.623Z,7.22
2023-04-18T20:21:48.387Z,6.35
2023-04-18T20:24:31.729Z,7.28
2023-04-18T20:27:14.502Z,8.57
2023-04-18T20:29:57.553Z,8.20
2023-04-18T20:32:40.389Z,6.93
2023-04-18T20:35:24.593Z,8.35
2023-04-18T20:38:08.858Z,7.82
2023-04-18T20:40:52.875Z,7.18
2023-04-18T20:43:37.217Z,7.90
2023-04-18T20:46:20.141Z,8.30
2023-04-18T20:49:02.953Z,9.55
2023-04-18T20:51:47.434Z,8.65
2023-04-18T20:54:30.469Z,10.27
2023-04-18T20:57:13.303Z,8.77
2023-04-18T20:59:58.525Z,8.35
2023-04-18T21:02:42.041Z,8.02
2023-04-18T21:05:25.035Z,9.15
2023-04-18T21:08:09.147Z,9.55
2023-04-18T21:10:52.351Z,8.75
2023-04-18T21:13:35.529Z,9.75
2023-04-18T21:16:18.398Z,8.38
2023-04-18T21:19:01.190Z,8.30
2023-04-18T21:21:43.957Z,9.50
2023-04-18T21:24:28.061Z,8.68
2023-04-18T21:27:11.467Z,8.65
2023-04-18T21:29:54.262Z,9.70
2023-04-18T21:32:37.141Z,8.30
2023-04-18T21:35:21.929Z,9.30
2023-04-18T21:38:06.334Z,8.07
2023-04-18T21:40:50.447Z,6.95
2023-04-18T21:43:33.193Z,8.18
2023-04-18T21:46:16.319Z,8.20
2023-04-18T21:48:59.448Z,6.18
2023-04-18T21:51:42.253Z,7.03
2023-04-18T21:54:25.001Z,6.60
2023-04-18T21:57:09.149Z,6.50
2023-04-18T21:59:51.864Z,7.90
2023-04-18T22:02:34.706Z,6.75
2023-04-18T22:05:17.851Z,8.35
2023-04-18T22:08:00.755Z,7.18
2023-04-18T22:10:43.540Z,5.25
2023-04-18T22:13:32.971Z,6.80
2023-04-18T22:16:15.967Z,7.13
2023-04-18T22:18:58.762Z,9.05
2023-04-18T22:21:41.702Z,9.13
2023-04-18T22:24:25.878Z,8.32
2023-04-18T22:27:08.672Z,6.90
2023-04-18T22:29:52.797Z,8.52
2023-04-18T22:32:35.853Z,8.05
2023-04-18T22:35:18.828Z,7.80
2023-04-18T22:38:01.708Z,7.05
2023-04-18T22:40:44.473Z,8.40
2023-04-18T22:43:27.240Z,8.48
2023-04-18T22:46:11.471Z,9.05
2023-04-18T22:48:54.237Z,7.38
2023-04-18T22:51:38.252Z,6.63
2023-04-18T22:54:21.105Z,7.75
2023-04-18T22:57:03.910Z,6.10
2023-04-18T22:59:46.663Z,7.05
2023-04-18T23:02:30.914Z,7.63
2023-04-18T23:05:15.512Z,9.38
2023-04-18T23:08:00.208Z,8.68
2023-04-18T23:10:43.361Z,6.68
2023-04-18T23:13:26.139Z,8.80
2023-04-18T23:16:09.400Z,10.00
2023-04-18T23:18:53.677Z,8.93
2023-04-18T23:21:36.516Z,9.02
2023-04-18T23:24:19.269Z,7.75
2023-04-18T23:27:02.412Z,7.93
2023-04-18T23:29:48.731Z,7.82
2023-04-18T23:32:31.637Z,7.47
2023-04-18T23:35:15.750Z,8.85
2023-04-18T23:37:58.529Z,8.27
2023-04-18T23:40:41.277Z,7.70
2023-04-18T23:43:24.068Z,6.85
2023-04-18T23:46:06.928Z,6.68
2023-04-18T23:48:49.721Z,7.18
2023-04-18T23:51:33.845Z,5.95
2023-04-18T23:54:16.801Z,6.20
2023-04-18T23:56:59.716Z,5.88
2023-04-18T23:59:42.613Z,6.65
